N35 weather

Punxsutawney Municipal Airport
Punxsutawney, Pennsylvania, United States

Public forecast

Using degrees Fahrenheit for public forecast. Weather courtesy of forecast.io.

METAR (pilot weather report)

Closest report is DuBois Regional Airport, 12.8 nm (23.7 km) N. Retrieved 2019/07/16 15:53 UTC (17 minutes ago):

KDUJ 161553Z AUTO 23007KT 10SM CLR 26/20 A3013 RMK AO2 SLP189 T02610200

TAF (pilot weather forecast)

Closest forecast is DuBois Regional Airport, 12.8 nm (23.7 km) N. Retrieved 2019/07/16 12:33 UTC (4 hours ago):

TAF KDUJ 161130Z 1612/1712 22003KT P6SM BKN120 FM161600 23006KT P6SM VCTS BKN040CB FM170000 21004KT P6SM BKN080 FM170800 20004KT P6SM VCSH BKN025